CheckWX is a tool to help pilots better visualize weather data.  It is not intended as a substitute for an official pre-flight weather briefing.

12:44:02 UTC

KMBS TAF
Mbs International Airport
Saginaw, Michigan, USA
KMBS 171130Z 1712/1812 12005KT P6SM SCT200 FM171400 15007KT P6SM BKN250 FM172000 14006KT P6SM OVC100 FM172200 15006KT P6SM OVC050 FM180400 16005KT P6SM OVC025

Nov-17@
12:00 UTC

Nov-17 @ 12:00 UTC

Nov-17@
14:00 UTC

Nov-17 @ 14:00 UTC

KMBS 171130Z 1712/1812 12005KT P6SM SCT200
Wind
  • 120° at 5 KTS
Cloud Levels
  • Scattered at 20,000' AGL

Nov-17@
14:00 UTC

Nov-17 @ 14:00 UTC

Nov-17@
20:00 UTC

Nov-17 @ 20:00 UTC

FM171400 15007KT P6SM BKN250

From

From Standard forecast or significant change

Wind
  • 150° at 7 KTS
Cloud Levels
  • Broken at 25,000' AGL

Nov-17@
20:00 UTC

Nov-17 @ 20:00 UTC

Nov-17@
22:00 UTC

Nov-17 @ 22:00 UTC

FM172000 14006KT P6SM OVC100

From

From Standard forecast or significant change

Wind
  • 140° at 6 KTS
Cloud Levels
  • Overcast at 10,000' AGL

Nov-17@
22:00 UTC

Nov-17 @ 22:00 UTC

Nov-18@
04:00 UTC

Nov-18 @ 04:00 UTC

FM172200 15006KT P6SM OVC050

From

From Standard forecast or significant change

Wind
  • 150° at 6 KTS
Cloud Levels
  • Overcast at 5,000' AGL

Nov-18@
04:00 UTC

Nov-18 @ 04:00 UTC

Nov-18@
12:00 UTC

Nov-18 @ 12:00 UTC

FM180400 16005KT P6SM OVC025

From

From Standard forecast or significant change

Wind
  • 160° at 5 KTS
Cloud Levels
  • Overcast at 2,500' AGL